EBBR/BRU METAR and TAF weather

Enter ICAO airport designator
Station Type Date Time Source
EBBR METAR 2018/09/21 22:50 UTC NOAA

EBBR 212250Z 24014KT CAVOK 13/08 Q1018 NOSIG


Station Type Date Time Source
EBBR Decoded METAR 2018/09/21 22:50 UTC NOAA

Bruxelles National, Belgium (EBBR) 50-54N 004-32E 58M
Sep 21, 2018 - 06:50 PM EDT / 2018.09.21 2250 UTC
Wind: from the WSW (240 degrees) at 16 MPH (14 KT):0
Visibility: greater than 7 mile(s):0
Temperature: 55 F (13 C)
Dew Point: 46 F (8 C)
Relative Humidity: 71%
Pressure (altimeter): 30.06 in. Hg (1018 hPa)
ob: EBBR 212250Z 24014KT CAVOK 13/08 Q1018 NOSIG
cycle: 23

Station Type Date Time Source
EBBR TAF 2018/09/21 18:27 UTC NOAA

TAF TAF EBBR 211707Z 2118/2224 24013KT 9999 SCT020 PROB40
TEMPO 2118/2120 24015G26KT


Example: see airport list